sensor_id;sensor_type;location;lat;lon;timestamp;P1;durP1;ratioP1;P2;durP2;ratioP2
69334;SDS011;56477;52.742;15.242;2023-02-18T00:32:52;8.90;;;2.35;;
69334;SDS011;56477;52.742;15.242;2023-02-18T00:35:18;9.90;;;1.88;;
69334;SDS011;56477;52.742;15.242;2023-02-18T00:37:44;8.45;;;1.50;;
69334;SDS011;56477;52.742;15.242;2023-02-18T00:40:10;8.23;;;2.10;;
69334;SDS011;56477;52.742;15.242;2023-02-18T00:42:36;6.95;;;1.40;;
69334;SDS011;56477;52.742;15.242;2023-02-18T00:45:02;5.28;;;1.15;;
69334;SDS011;56477;52.742;15.242;2023-02-18T00:47:29;8.77;;;1.63;;
69334;SDS011;56477;52.742;15.242;2023-02-18T00:49:55;10.52;;;2.05;;
69334;SDS011;56477;52.742;15.242;2023-02-18T00:52:20;7.37;;;0.93;;
69334;SDS011;56477;52.742;15.242;2023-02-18T00:54:47;5.88;;;0.88;;
69334;SDS011;56477;52.742;15.242;2023-02-18T00:57:12;9.98;;;1.15;;
69334;SDS011;56477;52.742;15.242;2023-02-18T00:59:39;9.73;;;1.85;;
69334;SDS011;56477;52.742;15.242;2023-02-18T01:02:04;7.57;;;1.23;;
69334;SDS011;56477;52.742;15.242;2023-02-18T01:04:32;11.55;;;2.03;;
69334;SDS011;56477;52.742;15.242;2023-02-18T01:06:58;9.40;;;2.17;;
69334;SDS011;56477;52.742;15.242;2023-02-18T01:09:24;6.90;;;1.13;;
69334;SDS011;56477;52.742;15.242;2023-02-18T01:11:50;12.05;;;1.40;;
69334;SDS011;56477;52.742;15.242;2023-02-18T01:14:16;8.82;;;1.38;;
69334;SDS011;56477;52.742;15.242;2023-02-18T01:16:42;12.53;;;1.93;;
69334;SDS011;56477;52.742;15.242;2023-02-18T01:19:08;12.30;;;1.98;;
69334;SDS011;56477;52.742;15.242;2023-02-18T01:21:34;10.77;;;1.50;;
69334;SDS011;56477;52.742;15.242;2023-02-18T01:24:00;13.90;;;2.58;;
69334;SDS011;56477;52.742;15.242;2023-02-18T01:26:26;6.40;;;1.73;;
69334;SDS011;56477;52.742;15.242;2023-02-18T01:28:52;11.75;;;1.98;;
69334;SDS011;56477;52.742;15.242;2023-02-18T01:31:18;11.80;;;1.60;;
69334;SDS011;56477;52.742;15.242;2023-02-18T01:33:44;8.93;;;1.23;;
69334;SDS011;56477;52.742;15.242;2023-02-18T01:36:10;8.87;;;1.77;;
69334;SDS011;56477;52.742;15.242;2023-02-18T01:38:37;11.65;;;1.52;;
69334;SDS011;56477;52.742;15.242;2023-02-18T01:41:03;10.32;;;1.35;;
69334;SDS011;56477;52.742;15.242;2023-02-18T01:43:30;9.38;;;1.88;;
69334;SDS011;56477;52.742;15.242;2023-02-18T01:48:47;12.03;;;2.30;;
69334;SDS011;56477;52.742;15.242;2023-02-18T01:51:26;7.93;;;1.95;;
69334;SDS011;56477;52.742;15.242;2023-02-18T01:54:01;9.73;;;1.35;;
69334;SDS011;56477;52.742;15.242;2023-02-18T01:59:00;12.00;;;1.83;;
69334;SDS011;56477;52.742;15.242;2023-02-18T02:01:28;10.97;;;1.70;;
69334;SDS011;56477;52.742;15.242;2023-02-18T02:03:57;9.57;;;1.63;;
69334;SDS011;56477;52.742;15.242;2023-02-18T02:06:23;10.77;;;1.67;;
69334;SDS011;56477;52.742;15.242;2023-02-18T02:08:50;11.45;;;1.83;;
69334;SDS011;56477;52.742;15.242;2023-02-18T02:14:50;8.77;;;1.07;;
69334;SDS011;56477;52.742;15.242;2023-02-18T02:45:18;13.18;;;1.52;;
69334;SDS011;56477;52.742;15.242;2023-02-18T02:50:44;14.27;;;1.83;;
69334;SDS011;56477;52.742;15.242;2023-02-18T02:53:23;14.50;;;2.33;;
69334;SDS011;56477;52.742;15.242;2023-02-18T02:55:52;6.93;;;1.03;;
69334;SDS011;56477;52.742;15.242;2023-02-18T02:58:20;12.88;;;1.30;;
69334;SDS011;56477;52.742;15.242;2023-02-18T03:15:22;10.30;;;1.90;;
69334;SDS011;56477;52.742;15.242;2023-02-18T03:17:54;9.40;;;1.20;;
69334;SDS011;56477;52.742;15.242;2023-02-18T03:20:33;12.05;;;1.55;;
69334;SDS011;56477;52.742;15.242;2023-02-18T03:23:05;14.63;;;2.00;;
69334;SDS011;56477;52.742;15.242;2023-02-18T03:25:36;16.33;;;2.40;;
69334;SDS011;56477;52.742;15.242;2023-02-18T03:28:06;9.02;;;1.80;;
69334;SDS011;56477;52.742;15.242;2023-02-18T03:30:41;17.02;;;2.65;;
69334;SDS011;56477;52.742;15.242;2023-02-18T03:33:12;10.85;;;1.67;;
69334;SDS011;56477;52.742;15.242;2023-02-18T03:35:41;12.83;;;2.40;;
69334;SDS011;56477;52.742;15.242;2023-02-18T03:38:19;9.35;;;1.05;;
69334;SDS011;56477;52.742;15.242;2023-02-18T03:40:49;13.43;;;1.60;;
69334;SDS011;56477;52.742;15.242;2023-02-18T03:43:15;12.27;;;2.00;;
69334;SDS011;56477;52.742;15.242;2023-02-18T03:45:41;19.33;;;2.05;;
69334;SDS011;56477;52.742;15.242;2023-02-18T03:48:07;10.30;;;1.97;;
69334;SDS011;56477;52.742;15.242;2023-02-18T03:50:33;11.50;;;2.25;;
69334;SDS011;56477;52.742;15.242;2023-02-18T03:52:59;6.75;;;1.48;;
69334;SDS011;56477;52.742;15.242;2023-02-18T03:55:25;9.97;;;1.90;;
69334;SDS011;56477;52.742;15.242;2023-02-18T03:57:51;13.57;;;1.55;;
69334;SDS011;56477;52.742;15.242;2023-02-18T04:00:17;7.85;;;1.60;;
69334;SDS011;56477;52.742;15.242;2023-02-18T04:02:44;9.48;;;1.17;;
69334;SDS011;56477;52.742;15.242;2023-02-18T04:05:11;7.93;;;1.03;;
69334;SDS011;56477;52.742;15.242;2023-02-18T04:07:37;10.93;;;1.58;;
69334;SDS011;56477;52.742;15.242;2023-02-18T04:10:04;10.55;;;1.27;;
69334;SDS011;56477;52.742;15.242;2023-02-18T04:12:31;4.93;;;0.88;;
69334;SDS011;56477;52.742;15.242;2023-02-18T04:14:57;4.43;;;0.88;;
69334;SDS011;56477;52.742;15.242;2023-02-18T04:17:23;11.93;;;1.60;;
69334;SDS011;56477;52.742;15.242;2023-02-18T04:19:49;10.80;;;1.30;;
69334;SDS011;56477;52.742;15.242;2023-02-18T04:22:15;12.73;;;1.77;;
69334;SDS011;56477;52.742;15.242;2023-02-18T04:24:41;12.37;;;2.57;;
69334;SDS011;56477;52.742;15.242;2023-02-18T04:27:07;5.65;;;0.90;;
69334;SDS011;56477;52.742;15.242;2023-02-18T04:29:33;9.75;;;1.88;;
69334;SDS011;56477;52.742;15.242;2023-02-18T04:31:59;10.32;;;2.00;;
69334;SDS011;56477;52.742;15.242;2023-02-18T04:34:25;16.87;;;1.93;;
69334;SDS011;56477;52.742;15.242;2023-02-18T04:36:51;12.02;;;1.80;;
69334;SDS011;56477;52.742;15.242;2023-02-18T04:39:17;10.02;;;1.45;;
69334;SDS011;56477;52.742;15.242;2023-02-18T04:41:43;10.60;;;2.30;;
69334;SDS011;56477;52.742;15.242;2023-02-18T04:44:09;7.80;;;1.03;;
69334;SDS011;56477;52.742;15.242;2023-02-18T04:46:35;12.43;;;2.20;;
69334;SDS011;56477;52.742;15.242;2023-02-18T04:49:01;8.20;;;1.63;;
69334;SDS011;56477;52.742;15.242;2023-02-18T04:51:27;6.57;;;1.87;;
69334;SDS011;56477;52.742;15.242;2023-02-18T04:53:53;11.00;;;1.85;;
69334;SDS011;56477;52.742;15.242;2023-02-18T04:56:19;10.63;;;1.58;;
69334;SDS011;56477;52.742;15.242;2023-02-18T04:58:45;12.23;;;1.80;;
69334;SDS011;56477;52.742;15.242;2023-02-18T05:01:11;8.47;;;1.40;;
69334;SDS011;56477;52.742;15.242;2023-02-18T05:03:37;10.02;;;1.63;;
69334;SDS011;56477;52.742;15.242;2023-02-18T05:06:03;8.32;;;1.35;;
69334;SDS011;56477;52.742;15.242;2023-02-18T05:08:30;10.70;;;1.83;;
69334;SDS011;56477;52.742;15.242;2023-02-18T05:10:56;10.65;;;1.88;;
69334;SDS011;56477;52.742;15.242;2023-02-18T05:13:22;9.73;;;1.63;;
69334;SDS011;56477;52.742;15.242;2023-02-18T05:15:48;9.73;;;1.63;;
69334;SDS011;56477;52.742;15.242;2023-02-18T05:18:14;6.32;;;1.20;;
69334;SDS011;56477;52.742;15.242;2023-02-18T05:20:40;12.82;;;1.85;;
69334;SDS011;56477;52.742;15.242;2023-02-18T05:23:06;6.55;;;1.10;;
69334;SDS011;56477;52.742;15.242;2023-02-18T05:25:32;11.10;;;1.73;;
69334;SDS011;56477;52.742;15.242;2023-02-18T05:27:58;9.93;;;1.70;;
69334;SDS011;56477;52.742;15.242;2023-02-18T05:30:24;14.80;;;2.17;;
69334;SDS011;56477;52.742;15.242;2023-02-18T05:32:50;14.75;;;2.20;;
69334;SDS011;56477;52.742;15.242;2023-02-18T05:35:16;13.10;;;2.00;;
69334;SDS011;56477;52.742;15.242;2023-02-18T05:37:42;12.65;;;1.48;;
69334;SDS011;56477;52.742;15.242;2023-02-18T05:40:09;11.40;;;1.87;;
69334;SDS011;56477;52.742;15.242;2023-02-18T05:42:36;14.90;;;1.97;;
69334;SDS011;56477;52.742;15.242;2023-02-18T05:45:02;9.10;;;1.65;;
69334;SDS011;56477;52.742;15.242;2023-02-18T05:47:29;9.25;;;1.00;;
69334;SDS011;56477;52.742;15.242;2023-02-18T05:49:55;12.90;;;1.80;;
69334;SDS011;56477;52.742;15.242;2023-02-18T05:52:21;9.75;;;1.50;;
69334;SDS011;56477;52.742;15.242;2023-02-18T05:54:47;11.32;;;2.00;;
69334;SDS011;56477;52.742;15.242;2023-02-18T05:57:13;7.07;;;1.48;;
69334;SDS011;56477;52.742;15.242;2023-02-18T05:59:39;7.95;;;1.63;;
69334;SDS011;56477;52.742;15.242;2023-02-18T06:02:06;10.33;;;1.33;;
69334;SDS011;56477;52.742;15.242;2023-02-18T06:04:32;3.90;;;0.43;;
69334;SDS011;56477;52.742;15.242;2023-02-18T06:06:58;9.40;;;1.30;;
69334;SDS011;56477;52.742;15.242;2023-02-18T06:09:24;9.88;;;1.33;;
69334;SDS011;56477;52.742;15.242;2023-02-18T06:11:50;13.33;;;1.00;;
69334;SDS011;56477;52.742;15.242;2023-02-18T06:14:16;15.25;;;1.70;;
69334;SDS011;56477;52.742;15.242;2023-02-18T06:16:42;13.18;;;2.28;;
69334;SDS011;56477;52.742;15.242;2023-02-18T06:19:08;4.40;;;1.23;;
69334;SDS011;56477;52.742;15.242;2023-02-18T06:21:34;7.13;;;1.33;;
69334;SDS011;56477;52.742;15.242;2023-02-18T06:24:00;7.30;;;0.82;;
69334;SDS011;56477;52.742;15.242;2023-02-18T06:26:27;14.45;;;1.48;;
69334;SDS011;56477;52.742;15.242;2023-02-18T06:28:53;8.35;;;1.85;;
69334;SDS011;56477;52.742;15.242;2023-02-18T06:31:19;9.60;;;1.87;;
69334;SDS011;56477;52.742;15.242;2023-02-18T06:33:45;7.65;;;1.35;;
69334;SDS011;56477;52.742;15.242;2023-02-18T06:36:11;9.35;;;1.98;;
69334;SDS011;56477;52.742;15.242;2023-02-18T06:38:38;7.70;;;1.33;;
69334;SDS011;56477;52.742;15.242;2023-02-18T06:41:06;13.18;;;1.95;;
69334;SDS011;56477;52.742;15.242;2023-02-18T06:43:32;5.03;;;1.10;;
69334;SDS011;56477;52.742;15.242;2023-02-18T06:45:59;12.02;;;1.35;;
69334;SDS011;56477;52.742;15.242;2023-02-18T06:48:25;8.98;;;1.33;;
69334;SDS011;56477;52.742;15.242;2023-02-18T06:50:52;8.85;;;1.35;;
69334;SDS011;56477;52.742;15.242;2023-02-18T06:53:17;6.40;;;1.47;;
69334;SDS011;56477;52.742;15.242;2023-02-18T06:55:44;4.85;;;0.80;;
69334;SDS011;56477;52.742;15.242;2023-02-18T06:58:10;3.72;;;1.20;;
69334;SDS011;56477;52.742;15.242;2023-02-18T07:00:37;12.02;;;1.73;;
69334;SDS011;56477;52.742;15.242;2023-02-18T07:03:04;5.57;;;1.58;;
69334;SDS011;56477;52.742;15.242;2023-02-18T07:05:30;11.37;;;2.07;;
69334;SDS011;56477;52.742;15.242;2023-02-18T07:07:56;8.80;;;1.67;;
69334;SDS011;56477;52.742;15.242;2023-02-18T07:10:22;5.80;;;1.20;;
69334;SDS011;56477;52.742;15.242;2023-02-18T07:12:48;4.07;;;0.82;;
69334;SDS011;56477;52.742;15.242;2023-02-18T07:15:15;3.55;;;1.35;;
69334;SDS011;56477;52.742;15.242;2023-02-18T07:17:40;3.33;;;0.80;;
69334;SDS011;56477;52.742;15.242;2023-02-18T07:20:07;13.00;;;2.30;;
69334;SDS011;56477;52.742;15.242;2023-02-18T07:22:33;4.32;;;0.77;;
69334;SDS011;56477;52.742;15.242;2023-02-18T07:25:00;8.55;;;1.92;;
69334;SDS011;56477;52.742;15.242;2023-02-18T07:27:26;4.23;;;1.07;;
69334;SDS011;56477;52.742;15.242;2023-02-18T07:29:52;5.22;;;0.77;;
69334;SDS011;56477;52.742;15.242;2023-02-18T07:32:18;7.85;;;1.20;;
69334;SDS011;56477;52.742;15.242;2023-02-18T07:34:44;4.65;;;0.80;;
69334;SDS011;56477;52.742;15.242;2023-02-18T07:37:10;4.72;;;1.00;;
69334;SDS011;56477;52.742;15.242;2023-02-18T07:39:40;6.07;;;1.10;;
69334;SDS011;56477;52.742;15.242;2023-02-18T07:42:07;7.03;;;0.98;;
69334;SDS011;56477;52.742;15.242;2023-02-18T07:44:34;7.07;;;1.48;;
69334;SDS011;56477;52.742;15.242;2023-02-18T07:47:02;7.75;;;1.15;;
69334;SDS011;56477;52.742;15.242;2023-02-18T07:49:29;12.68;;;2.45;;
69334;SDS011;56477;52.742;15.242;2023-02-18T07:51:55;7.53;;;0.97;;
69334;SDS011;56477;52.742;15.242;2023-02-18T07:54:21;3.75;;;0.90;;
69334;SDS011;56477;52.742;15.242;2023-02-18T07:56:47;2.13;;;0.68;;
69334;SDS011;56477;52.742;15.242;2023-02-18T07:59:13;5.72;;;1.38;;
69334;SDS011;56477;52.742;15.242;2023-02-18T08:01:39;4.47;;;0.60;;
69334;SDS011;56477;52.742;15.242;2023-02-18T08:04:06;7.68;;;0.85;;
69334;SDS011;56477;52.742;15.242;2023-02-18T08:06:36;8.38;;;0.90;;
69334;SDS011;56477;52.742;15.242;2023-02-18T08:09:07;6.30;;;1.35;;
69334;SDS011;56477;52.742;15.242;2023-02-18T08:11:34;5.18;;;0.93;;
69334;SDS011;56477;52.742;15.242;2023-02-18T08:14:00;5.10;;;1.10;;
69334;SDS011;56477;52.742;15.242;2023-02-18T08:16:26;6.63;;;0.80;;
69334;SDS011;56477;52.742;15.242;2023-02-18T08:18:52;5.90;;;0.60;;
69334;SDS011;56477;52.742;15.242;2023-02-18T08:21:20;7.13;;;0.90;;
69334;SDS011;56477;52.742;15.242;2023-02-18T08:23:47;4.23;;;0.70;;
69334;SDS011;56477;52.742;15.242;2023-02-18T08:26:14;5.55;;;0.80;;
69334;SDS011;56477;52.742;15.242;2023-02-18T08:28:41;3.28;;;1.00;;
69334;SDS011;56477;52.742;15.242;2023-02-18T08:31:11;8.20;;;1.27;;
69334;SDS011;56477;52.742;15.242;2023-02-18T08:33:42;7.97;;;1.15;;
69334;SDS011;56477;52.742;15.242;2023-02-18T08:36:08;6.40;;;0.50;;
69334;SDS011;56477;52.742;15.242;2023-02-18T08:38:35;15.73;;;1.23;;
69334;SDS011;56477;52.742;15.242;2023-02-18T08:41:02;6.72;;;0.75;;
69334;SDS011;56477;52.742;15.242;2023-02-18T08:43:30;6.70;;;0.82;;
69334;SDS011;56477;52.742;15.242;2023-02-18T08:45:56;7.30;;;0.80;;
69334;SDS011;56477;52.742;15.242;2023-02-18T08:48:23;5.22;;;0.85;;
69334;SDS011;56477;52.742;15.242;2023-02-18T08:50:49;6.27;;;0.83;;
69334;SDS011;56477;52.742;15.242;2023-02-18T08:53:15;7.57;;;1.10;;
69334;SDS011;56477;52.742;15.242;2023-02-18T08:55:42;5.53;;;0.63;;
69334;SDS011;56477;52.742;15.242;2023-02-18T08:58:09;5.87;;;1.50;;
69334;SDS011;56477;52.742;15.242;2023-02-18T09:00:35;9.45;;;1.50;;
69334;SDS011;56477;52.742;15.242;2023-02-18T09:03:02;4.43;;;0.60;;
69334;SDS011;56477;52.742;15.242;2023-02-18T09:05:28;9.02;;;1.95;;
69334;SDS011;56477;52.742;15.242;2023-02-18T09:07:54;3.70;;;0.82;;
69334;SDS011;56477;52.742;15.242;2023-02-18T09:10:20;6.03;;;1.17;;
69334;SDS011;56477;52.742;15.242;2023-02-18T09:12:46;7.65;;;0.90;;
69334;SDS011;56477;52.742;15.242;2023-02-18T09:15:12;3.60;;;0.77;;
69334;SDS011;56477;52.742;15.242;2023-02-18T09:17:39;8.03;;;1.00;;
69334;SDS011;56477;52.742;15.242;2023-02-18T09:20:05;5.50;;;0.90;;
69334;SDS011;56477;52.742;15.242;2023-02-18T09:22:31;4.82;;;0.98;;
69334;SDS011;56477;52.742;15.242;2023-02-18T09:24:57;6.18;;;1.08;;
69334;SDS011;56477;52.742;15.242;2023-02-18T09:27:24;9.13;;;1.00;;
69334;SDS011;56477;52.742;15.242;2023-02-18T09:29:50;5.85;;;0.73;;
69334;SDS011;56477;52.742;15.242;2023-02-18T09:32:16;4.00;;;1.27;;
69334;SDS011;56477;52.742;15.242;2023-02-18T09:34:42;6.38;;;0.63;;
69334;SDS011;56477;52.742;15.242;2023-02-18T09:37:09;3.58;;;0.73;;
69334;SDS011;56477;52.742;15.242;2023-02-18T09:39:35;5.80;;;0.93;;
69334;SDS011;56477;52.742;15.242;2023-02-18T09:42:03;2.67;;;0.63;;
69334;SDS011;56477;52.742;15.242;2023-02-18T09:44:34;7.40;;;1.27;;
69334;SDS011;56477;52.742;15.242;2023-02-18T09:47:16;3.70;;;0.95;;
69334;SDS011;56477;52.742;15.242;2023-02-18T09:49:46;3.60;;;0.70;;
69334;SDS011;56477;52.742;15.242;2023-02-18T09:52:20;6.33;;;1.37;;
69334;SDS011;56477;52.742;15.242;2023-02-18T09:54:49;3.53;;;0.88;;
69334;SDS011;56477;52.742;15.242;2023-02-18T09:57:32;5.68;;;1.05;;
69334;SDS011;56477;52.742;15.242;2023-02-18T10:02:52;3.78;;;0.70;;
69334;SDS011;56477;52.742;15.242;2023-02-18T10:05:23;4.90;;;0.87;;
69334;SDS011;56477;52.742;15.242;2023-02-18T10:07:53;4.85;;;0.90;;
69334;SDS011;56477;52.742;15.242;2023-02-18T10:10:27;5.93;;;1.02;;
69334;SDS011;56477;52.742;15.242;2023-02-18T10:13:15;3.28;;;0.80;;
69334;SDS011;56477;52.742;15.242;2023-02-18T10:15:43;1.70;;;0.65;;
69334;SDS011;56477;52.742;15.242;2023-02-18T10:18:20;2.57;;;0.60;;
69334;SDS011;56477;52.742;15.242;2023-02-18T10:20:52;4.80;;;0.60;;
69334;SDS011;56477;52.742;15.242;2023-02-18T10:23:24;4.22;;;0.88;;
69334;SDS011;56477;52.742;15.242;2023-02-18T10:25:52;3.80;;;0.80;;
69334;SDS011;56477;52.742;15.242;2023-02-18T10:28:20;5.47;;;0.90;;
69334;SDS011;56477;52.742;15.242;2023-02-18T10:30:51;2.63;;;0.70;;
69334;SDS011;56477;52.742;15.242;2023-02-18T10:33:35;3.92;;;0.80;;
69334;SDS011;56477;52.742;15.242;2023-02-18T10:41:28;5.68;;;1.00;;
69334;SDS011;56477;52.742;15.242;2023-02-18T10:44:22;1.53;;;0.30;;
69334;SDS011;56477;52.742;15.242;2023-02-18T10:50:04;5.75;;;1.00;;
69334;SDS011;56477;52.742;15.242;2023-02-18T10:52:41;4.85;;;1.00;;
69334;SDS011;56477;52.742;15.242;2023-02-18T10:55:14;1.10;;;0.40;;
69334;SDS011;56477;52.742;15.242;2023-02-18T10:57:50;3.33;;;0.47;;
69334;SDS011;56477;52.742;15.242;2023-02-18T11:00:22;2.97;;;0.43;;
69334;SDS011;56477;52.742;15.242;2023-02-18T11:03:01;5.60;;;0.80;;
69334;SDS011;56477;52.742;15.242;2023-02-18T11:05:34;3.88;;;0.73;;
69334;SDS011;56477;52.742;15.242;2023-02-18T11:08:00;2.17;;;0.68;;
69334;SDS011;56477;52.742;15.242;2023-02-18T11:10:32;4.60;;;0.53;;
69334;SDS011;56477;52.742;15.242;2023-02-18T11:13:05;3.83;;;0.80;;
69334;SDS011;56477;52.742;15.242;2023-02-18T11:15:32;4.25;;;0.63;;
69334;SDS011;56477;52.742;15.242;2023-02-18T11:20:57;4.13;;;1.17;;
69334;SDS011;56477;52.742;15.242;2023-02-18T11:23:24;3.73;;;0.80;;
69334;SDS011;56477;52.742;15.242;2023-02-18T11:28:45;4.97;;;0.77;;
69334;SDS011;56477;52.742;15.242;2023-02-18T11:31:19;5.88;;;0.57;;
69334;SDS011;56477;52.742;15.242;2023-02-18T11:33:51;3.17;;;0.60;;
69334;SDS011;56477;52.742;15.242;2023-02-18T11:36:26;5.57;;;1.40;;
69334;SDS011;56477;52.742;15.242;2023-02-18T11:38:58;2.83;;;0.65;;
69334;SDS011;56477;52.742;15.242;2023-02-18T11:41:30;6.70;;;2.10;;
69334;SDS011;56477;52.742;15.242;2023-02-18T11:44:00;10.15;;;1.83;;
69334;SDS011;56477;52.742;15.242;2023-02-18T11:46:27;5.43;;;2.03;;
69334;SDS011;56477;52.742;15.242;2023-02-18T11:48:54;5.80;;;1.30;;
69334;SDS011;56477;52.742;15.242;2023-02-18T11:51:22;9.60;;;2.95;;
69334;SDS011;56477;52.742;15.242;2023-02-18T11:56:24;3.97;;;1.63;;
69334;SDS011;56477;52.742;15.242;2023-02-18T11:58:52;3.75;;;1.20;;
69334;SDS011;56477;52.742;15.242;2023-02-18T12:03:58;4.70;;;2.00;;
69334;SDS011;56477;52.742;15.242;2023-02-18T12:09:34;4.18;;;1.35;;
69334;SDS011;56477;52.742;15.242;2023-02-18T12:12:24;5.90;;;2.55;;
69334;SDS011;56477;52.742;15.242;2023-02-18T12:14:54;10.33;;;3.50;;
69334;SDS011;56477;52.742;15.242;2023-02-18T12:27:46;4.73;;;1.40;;
69334;SDS011;56477;52.742;15.242;2023-02-18T12:30:25;3.35;;;0.85;;
69334;SDS011;56477;52.742;15.242;2023-02-18T12:35:59;6.10;;;1.63;;
69334;SDS011;56477;52.742;15.242;2023-02-18T12:49:58;2.15;;;0.65;;
69334;SDS011;56477;52.742;15.242;2023-02-18T13:12:05;2.40;;;0.70;;
69334;SDS011;56477;52.742;15.242;2023-02-18T13:14:34;3.78;;;1.40;;
69334;SDS011;56477;52.742;15.242;2023-02-18T13:17:08;3.45;;;1.25;;
69334;SDS011;56477;52.742;15.242;2023-02-18T13:19:54;2.13;;;0.80;;
69334;SDS011;56477;52.742;15.242;2023-02-18T13:22:26;8.30;;;2.20;;
69334;SDS011;56477;52.742;15.242;2023-02-18T13:24:55;3.88;;;1.20;;
69334;SDS011;56477;52.742;15.242;2023-02-18T13:27:28;1.90;;;1.02;;
69334;SDS011;56477;52.742;15.242;2023-02-18T13:41:21;1.55;;;0.35;;
69334;SDS011;56477;52.742;15.242;2023-02-18T13:43:48;2.28;;;0.70;;
69334;SDS011;56477;52.742;15.242;2023-02-18T13:46:14;3.90;;;1.23;;
69334;SDS011;56477;52.742;15.242;2023-02-18T13:48:50;3.50;;;0.47;;
69334;SDS011;56477;52.742;15.242;2023-02-18T13:51:32;3.10;;;1.15;;
69334;SDS011;56477;52.742;15.242;2023-02-18T13:56:44;2.38;;;0.80;;
69334;SDS011;56477;52.742;15.242;2023-02-18T14:04:51;6.38;;;2.70;;
69334;SDS011;56477;52.742;15.242;2023-02-18T14:09:53;6.70;;;2.60;;
69334;SDS011;56477;52.742;15.242;2023-02-18T14:12:25;9.82;;;2.92;;
69334;SDS011;56477;52.742;15.242;2023-02-18T14:22:45;6.72;;;2.78;;
69334;SDS011;56477;52.742;15.242;2023-02-18T14:25:21;8.43;;;3.30;;
69334;SDS011;56477;52.742;15.242;2023-02-18T14:28:00;5.50;;;1.90;;
69334;SDS011;56477;52.742;15.242;2023-02-18T14:30:49;6.68;;;2.90;;
69334;SDS011;56477;52.742;15.242;2023-02-18T14:33:16;11.30;;;4.60;;
69334;SDS011;56477;52.742;15.242;2023-02-18T14:35:55;10.38;;;4.10;;
69334;SDS011;56477;52.742;15.242;2023-02-18T14:38:36;15.20;;;6.63;;
69334;SDS011;56477;52.742;15.242;2023-02-18T14:44:07;10.77;;;4.63;;
69334;SDS011;56477;52.742;15.242;2023-02-18T14:54:57;6.13;;;2.00;;
69334;SDS011;56477;52.742;15.242;2023-02-18T15:00:21;6.18;;;2.13;;
69334;SDS011;56477;52.742;15.242;2023-02-18T15:02:57;5.78;;;1.90;;
69334;SDS011;56477;52.742;15.242;2023-02-18T15:05:26;8.70;;;3.00;;
69334;SDS011;56477;52.742;15.242;2023-02-18T15:08:01;8.30;;;3.40;;
69334;SDS011;56477;52.742;15.242;2023-02-18T15:10:34;9.50;;;3.42;;
69334;SDS011;56477;52.742;15.242;2023-02-18T15:13:01;12.35;;;5.32;;
69334;SDS011;56477;52.742;15.242;2023-02-18T15:15:29;11.93;;;4.57;;
69334;SDS011;56477;52.742;15.242;2023-02-18T15:17:58;7.13;;;2.78;;
69334;SDS011;56477;52.742;15.242;2023-02-18T15:20:33;5.73;;;2.43;;
69334;SDS011;56477;52.742;15.242;2023-02-18T15:22:59;9.10;;;2.90;;
69334;SDS011;56477;52.742;15.242;2023-02-18T15:25:26;6.95;;;2.67;;
69334;SDS011;56477;52.742;15.242;2023-02-18T15:27:52;11.35;;;2.95;;
69334;SDS011;56477;52.742;15.242;2023-02-18T15:30:29;12.60;;;4.80;;
69334;SDS011;56477;52.742;15.242;2023-02-18T15:32:57;14.50;;;4.70;;
69334;SDS011;56477;52.742;15.242;2023-02-18T15:35:26;8.23;;;2.88;;
69334;SDS011;56477;52.742;15.242;2023-02-18T15:37:57;6.18;;;2.30;;
69334;SDS011;56477;52.742;15.242;2023-02-18T15:40:30;3.85;;;1.58;;
69334;SDS011;56477;52.742;15.242;2023-02-18T15:42:59;6.78;;;1.77;;
69334;SDS011;56477;52.742;15.242;2023-02-18T15:48:03;5.57;;;1.67;;
69334;SDS011;56477;52.742;15.242;2023-02-18T15:53:04;3.85;;;1.10;;
69334;SDS011;56477;52.742;15.242;2023-02-18T15:55:39;3.33;;;0.98;;
69334;SDS011;56477;52.742;15.242;2023-02-18T15:58:08;3.83;;;1.40;;
69334;SDS011;56477;52.742;15.242;2023-02-18T16:00:39;3.10;;;1.02;;
69334;SDS011;56477;52.742;15.242;2023-02-18T16:03:23;4.95;;;1.55;;
69334;SDS011;56477;52.742;15.242;2023-02-18T16:11:46;13.67;;;4.47;;
69334;SDS011;56477;52.742;15.242;2023-02-18T16:14:33;13.60;;;5.70;;
69334;SDS011;56477;52.742;15.242;2023-02-18T16:17:21;17.13;;;7.85;;
69334;SDS011;56477;52.742;15.242;2023-02-18T16:24:57;17.70;;;7.30;;
69334;SDS011;56477;52.742;15.242;2023-02-18T16:27:27;14.60;;;5.15;;
69334;SDS011;56477;52.742;15.242;2023-02-18T16:30:01;8.95;;;4.50;;
69334;SDS011;56477;52.742;15.242;2023-02-18T16:32:40;8.20;;;3.47;;
69334;SDS011;56477;52.742;15.242;2023-02-18T16:35:06;10.23;;;4.25;;
69334;SDS011;56477;52.742;15.242;2023-02-18T16:37:32;8.53;;;3.20;;
69334;SDS011;56477;52.742;15.242;2023-02-18T16:40:49;12.98;;;4.55;;
69334;SDS011;56477;52.742;15.242;2023-02-18T16:42:59;9.85;;;3.90;;
69334;SDS011;56477;52.742;15.242;2023-02-18T16:45:32;8.60;;;3.20;;
69334;SDS011;56477;52.742;15.242;2023-02-18T16:48:00;6.82;;;2.78;;
69334;SDS011;56477;52.742;15.242;2023-02-18T16:50:27;8.03;;;3.43;;
69334;SDS011;56477;52.742;15.242;2023-02-18T16:53:20;9.68;;;3.38;;
69334;SDS011;56477;52.742;15.242;2023-02-18T16:55:48;9.77;;;3.90;;
69334;SDS011;56477;52.742;15.242;2023-02-18T16:58:15;7.55;;;3.20;;
69334;SDS011;56477;52.742;15.242;2023-02-18T17:00:42;7.72;;;3.00;;
69334;SDS011;56477;52.742;15.242;2023-02-18T17:03:08;6.63;;;2.97;;
69334;SDS011;56477;52.742;15.242;2023-02-18T17:05:36;6.50;;;2.47;;
69334;SDS011;56477;52.742;15.242;2023-02-18T17:10:52;9.23;;;3.00;;
69334;SDS011;56477;52.742;15.242;2023-02-18T17:13:21;10.27;;;3.60;;
69334;SDS011;56477;52.742;15.242;2023-02-18T17:15:50;8.37;;;3.40;;
69334;SDS011;56477;52.742;15.242;2023-02-18T17:18:18;8.32;;;3.60;;
69334;SDS011;56477;52.742;15.242;2023-02-18T17:20:44;6.38;;;2.92;;
69334;SDS011;56477;52.742;15.242;2023-02-18T17:23:13;8.68;;;3.95;;
69334;SDS011;56477;52.742;15.242;2023-02-18T17:25:40;7.88;;;3.22;;
69334;SDS011;56477;52.742;15.242;2023-02-18T17:28:07;13.37;;;4.60;;
69334;SDS011;56477;52.742;15.242;2023-02-18T17:30:37;12.90;;;5.25;;
69334;SDS011;56477;52.742;15.242;2023-02-18T17:33:05;12.55;;;4.38;;
69334;SDS011;56477;52.742;15.242;2023-02-18T17:35:32;12.77;;;5.53;;
69334;SDS011;56477;52.742;15.242;2023-02-18T17:37:58;14.30;;;6.27;;
69334;SDS011;56477;52.742;15.242;2023-02-18T17:40:25;12.95;;;5.53;;
69334;SDS011;56477;52.742;15.242;2023-02-18T17:42:53;11.00;;;3.83;;
69334;SDS011;56477;52.742;15.242;2023-02-18T17:45:25;15.00;;;6.10;;
69334;SDS011;56477;52.742;15.242;2023-02-18T17:47:54;14.02;;;6.15;;
69334;SDS011;56477;52.742;15.242;2023-02-18T17:50:21;13.40;;;5.63;;
69334;SDS011;56477;52.742;15.242;2023-02-18T17:52:48;14.07;;;5.40;;
69334;SDS011;56477;52.742;15.242;2023-02-18T17:55:21;13.18;;;5.47;;
69334;SDS011;56477;52.742;15.242;2023-02-18T17:57:52;15.32;;;5.60;;
69334;SDS011;56477;52.742;15.242;2023-02-18T18:00:24;20.65;;;6.13;;
69334;SDS011;56477;52.742;15.242;2023-02-18T18:02:52;16.90;;;6.63;;
69334;SDS011;56477;52.742;15.242;2023-02-18T18:07:49;11.25;;;4.95;;
69334;SDS011;56477;52.742;15.242;2023-02-18T18:10:17;9.27;;;4.15;;
69334;SDS011;56477;52.742;15.242;2023-02-18T18:12:47;13.73;;;5.93;;
69334;SDS011;56477;52.742;15.242;2023-02-18T18:17:45;9.85;;;3.60;;
69334;SDS011;56477;52.742;15.242;2023-02-18T18:20:12;10.88;;;4.78;;
69334;SDS011;56477;52.742;15.242;2023-02-18T18:22:38;13.50;;;5.25;;
69334;SDS011;56477;52.742;15.242;2023-02-18T18:25:10;12.38;;;4.78;;